Nearby METAR Reports

 

KVCT - Victoria, Texas, USA
Distance from station: E 12mi, 20km
Updated: 04/08/2020 9:51am
Haze, Overcast
Haze, Overcast
 Wind from SSW
Wind: SSW 8 mph , 13 km/h
Temperature: 79°F , 26°C
Dew Point: 72°F , 22°C
Humidity: 79%
Barometer: 29.95 inHg , 1014.2 hPa
Summary: Haze
Clouds: Overcast
Visibility: 6 miles , 10 km
Cloud details: Overcast 900 ft
2020/04/08 14:51 KVCT 081451Z 20007KT 6SM HZ OVC009 26/22 A2995 RMK AO2 CIG 007V014 SLP138 T02560222 51018
KPKV - Port Lavaca, Texas, USA
Distance from station: ESE 31mi, 50km
Updated: 04/08/2020 10:35am
Overcast
Overcast
 Wind from SSW
Wind: SSW 7 mph , 11 km/h
Temperature: 79°F , 26°C
Dew Point: 75°F , 24°C
Humidity: 89%
Barometer: 29.96 inHg , 1014.6 hPa
Clouds: Overcast
Visibility: 7 miles , 11 km
Cloud details: Overcast 1200 ft
2020/04/08 15:35 KPKV 081535Z AUTO 20006KT 7SM OVC012 26/24 A2996 RMK AO2 T02620242
 
KT20 - Gonzales Muni, Texas, USA
Distance from station: NNW 50mi, 81km
Updated: 04/08/2020 10:35am
Overcast
Overcast
 Wind from SW
Wind: SW 6 mph , 9 km/h
Temperature: 77°F , 25°C
Dew Point: 75°F , 24°C
Humidity: 94%
Barometer: 29.96 inHg , 1014.6 hPa
Clouds: Overcast
Visibility: 7 miles , 11 km
Cloud details: Overcast 900 ft
2020/04/08 15:35 KT20 081535Z AUTO 23005KT 7SM OVC009 25/24 A2996 RMK AO2 T02460240
KBEA - Beeville Muni, Texas, USA
Distance from station: SW 51mi, 83km
Updated: 04/08/2020 10:35am
Overcast
Overcast
 Wind from SSW
Wind: SSW 6 mph , 9 km/h
Temperature: 79°F , 26°C
Dew Point: 75°F , 24°C
Humidity: 89%
Barometer: 29.95 inHg , 1014.2 hPa
Clouds: Overcast
Visibility: 10 miles , 16 km
Cloud details: Overcast 1000 ft
2020/04/08 15:35 KBEA 081535Z AUTO 21005KT 10SM OVC010 26/24 A2995 RMK AO2 T02550242
 
KRKP - Rockport, Texas, USA
Distance from station: S 53mi, 86km
Updated: 04/08/2020 10:49am
Partly cloudy
Partly cloudy
 Wind from varies
Wind: varies 6 mph , 9 km/h
Temperature: 82°F , 28°C
Heat Index: 87°F , 31°C
Dew Point: 73°F , 23°C
Humidity: 74%
Barometer: 29.95 inHg , 1014.2 hPa
Clouds: Partly cloudy
Visibility: 7 miles , 11 km
Cloud details: Partly cloudy 1000 ft
2020/04/08 15:49 KRKP 081549Z AUTO VRB05KT 7SM SCT010 28/23 A2995 RMK AO2
KPSX - Palacios, Texas, USA
Distance from station: E 55mi, 88km
Updated: 04/08/2020 10:20am
Overcast
Overcast
 Wind from SSW
Wind: SSW 8 mph , 13 km/h
Temperature: 75°F , 24°C
Dew Point: 72°F , 22°C
Humidity: 89%
Barometer: 29.96 inHg , 1014.6 hPa
Clouds: Overcast
Visibility: 10 miles , 16 km
Cloud details: Partly cloudy 800 ft
Overcast 1400 ft
2020/04/08 15:20 KPSX 081520Z AUTO 20007KT 10SM SCT008 OVC014 24/22 A2996 RMK AO2 T02440222
 
KTFP - Ingleside/Tp Mcc, Texas, USA
Distance from station: S 65mi, 104km
Updated: 04/08/2020 10:35am
Partly cloudy
Partly cloudy
 Wind from SW
Wind: SW 7 mph , 11 km/h
Temperature: 81°F , 27°C
Heat Index: 88°F , 31°C
Dew Point: 77°F , 25°C
Humidity: 89%
Barometer: 29.95 inHg , 1014.2 hPa
Clouds: Partly cloudy
Visibility: 10 miles , 16 km
Cloud details: Partly cloudy 500 ft
Partly cloudy 1000 ft
2020/04/08 15:35 KTFP 081535Z AUTO 23006KT 10SM SCT005 SCT010 27/25 A2995 RMK AO2 T02700251 PNO
K66R - Columbus, Texas, USA
Distance from station: NE 66mi, 106km
Updated: 04/08/2020 10:35am
Overcast
Overcast
 Wind from SW
Wind: SW 3 mph , 6 km/h
Temperature: 73°F , 23°C
Dew Point: 68°F , 20°C
Humidity: 83%
Barometer: 29.98 inHg , 1015.2 hPa
Clouds: Overcast
Visibility: 10 miles , 16 km
Cloud details: Overcast 900 ft
2020/04/08 15:35 K66R 081535Z AUTO 22003KT 10SM OVC009 23/20 A2998 RMK AO2 T02320198
 
KARM - Wharton, Texas, USA
Distance from station: ENE 66mi, 106km
Updated: 04/08/2020 10:35am
Overcast
Overcast
 Wind from SW
Wind: SW 6 mph , 9 km/h
Temperature: 75°F , 24°C
Dew Point: 72°F , 22°C
Humidity: 89%
Barometer: 29.97 inHg , 1014.9 hPa
Clouds: Overcast
Visibility: 7 miles , 11 km
Cloud details: Mostly cloudy 600 ft
Overcast 1100 ft
2020/04/08 15:35 KARM 081535Z AUTO 23005KT 7SM BKN006 OVC011 24/22 A2997 RMK AO2 T02370220
KRAS - Port Aransas, Texas, USA
Distance from station: S 71mi, 115km
Updated: 04/08/2020 10:35am
Overcast
Overcast
 Wind from S
Wind: S 7 mph , 11 km/h
Temperature: 75°F , 24°C
Dew Point: 73°F , 23°C
Humidity: 94%
Barometer: 29.97 inHg , 1014.9 hPa
Clouds: Overcast
Visibility: 10 miles , 16 km
Cloud details: Overcast 400 ft
2020/04/08 15:35 KRAS 081535Z AUTO 17006KT 10SM OVC004 24/23 A2997 RMK AO2 T02410234
 
KELA - Eagle Lake, Texas, USA
Distance from station: NE 72mi, 115km
Updated: 04/08/2020 10:35am
Overcast
Overcast
 Wind from WSW
Wind: WSW 5 mph , 7 km/h
Temperature: 79°F , 26°C
Dew Point: 73°F , 23°C
Humidity: 84%
Barometer: 29.97 inHg , 1014.9 hPa
Clouds: Overcast
Visibility: 10 miles , 16 km
Cloud details: Overcast 1100 ft
2020/04/08 15:35 KELA 081535Z AUTO 24004KT 10SM OVC011 26/23 A2997 RMK AO2 T02550228
K3T5 - La Grange, Texas, USA
Distance from station: N 73mi, 118km
Updated: 04/08/2020 10:35am
Overcast
Overcast
 Wind from W
Wind: W 6 mph , 9 km/h
Temperature: 77°F , 25°C
Dew Point: 75°F , 24°C
Humidity: 94%
Barometer: 29.95 inHg , 1014.2 hPa
Clouds: Overcast
Visibility: 7 miles , 11 km
Cloud details: Overcast 900 ft
2020/04/08 15:35 K3T5 081535Z AUTO 26005KT 7SM OVC009 25/24 A2995 RMK AO2 T02500240
 
KBYY - Bay City, Texas, USA
Distance from station: E 77mi, 124km
Updated: 04/08/2020 10:35am
Overcast
Overcast
 Wind from SW
Wind: SW 5 mph , 7 km/h
Temperature: 79°F , 26°C
Dew Point: 73°F , 23°C
Humidity: 84%
Barometer: 29.96 inHg , 1014.6 hPa
Clouds: Overcast
Visibility: 10 miles , 16 km
Cloud details: Overcast 1200 ft
2020/04/08 15:35 KBYY 081535Z AUTO 22004KT 10SM OVC012 26/23 A2996 RMK AO2 T02600236
KCRP - Corpus Christi, Texas, USA
Distance from station: SSW 78mi, 126km
Updated: 04/08/2020 10:51am
Mostly cloudy
Mostly cloudy
 Wind from SW
Wind: SW 7 mph , 11 km/h
Temperature: 82°F , 28°C
Heat Index: 87°F , 31°C
Dew Point: 73°F , 23°C
Humidity: 74%
Barometer: 29.95 inHg , 1014.2 hPa
Clouds: Mostly cloudy
Visibility: 8 miles , 13 km
Cloud details: Partly cloudy 1600 ft
Mostly cloudy 15000 ft
Mostly cloudy 25000 ft
2020/04/08 15:51 KCRP 081551Z 22006KT 8SM SCT016 BKN150 BKN250 28/23 A2995 RMK AO2 SLP139 T02780233
 
KNGP - C. Christi Nas, Texas, USA
Distance from station: S 81mi, 130km
Updated: 04/08/2020 10:18am
Mostly cloudy
Mostly cloudy
 Wind from varies
Wind: varies 5 mph , 7 km/h
Temperature: 81°F , 27°C
Heat Index: 87°F , 31°C
Dew Point: 75°F , 24°C
Humidity: 84%
Barometer: 29.95 inHg , 1014.2 hPa
Clouds: Mostly cloudy
Visibility: 10 miles , 16 km
Cloud details: Few Clouds 800 ft
Partly cloudy 1600 ft
Mostly cloudy 15000 ft
Mostly cloudy 30000 ft
2020/04/08 15:18 KNGP 081518Z VRB04KT 10SM FEW008 SCT016 BKN150 BKN300 27/24 A2995 RMK AO2 T02670244 $
KRBO - Robstown/Nueces, Texas, USA
Distance from station: SSW 81mi, 130km
Updated: 04/08/2020 10:30am
Mostly cloudy
Mostly cloudy
 Wind from S
Wind: S 3 mph , 6 km/h
Temperature: 82°F , 28°C
Heat Index: 93°F , 34°C
Dew Point: 81°F , 27°C
Humidity: 94%
Barometer: 29.95 inHg , 1014.2 hPa
Clouds: Mostly cloudy
Visibility: 10 miles , 16 km
Cloud details: Partly cloudy 900 ft
Mostly cloudy 1600 ft
2020/04/08 15:30 KRBO 081530Z AUTO 19003KT 10SM SCT009 BKN016 28/27 A2995 RMK AO2 T02760265
 
KBAZ - New Braunfels, Texas, USA
Distance from station: NW 81mi, 131km
Updated: 04/08/2020 10:51am
Haze, Mostly cloudy
Haze, Mostly cloudy
 Wind from SW
Wind: SW 7 mph , 11 km/h
Temperature: 82°F , 28°C
Heat Index: 87°F , 31°C
Dew Point: 73°F , 23°C
Humidity: 74%
Barometer: 29.95 inHg , 1014.2 hPa
Summary: Haze
Clouds: Mostly cloudy
Visibility: 6 miles , 10 km
Cloud details: Mostly cloudy 1300 ft
2020/04/08 15:51 KBAZ 081551Z 23006KT 6SM HZ BKN013 28/23 A2995 RMK AO2 SLP134 T02780228
KRND - Randolph Afb, Texas, USA
Distance from station: NW 82mi, 132km
Updated: 04/08/2020 10:11am
Mist, Mostly cloudy
Mist, Mostly cloudy
 Wind from W
Wind: W 8 mph , 13 km/h
Temperature: 77°F , 25°C
Dew Point: 72°F , 22°C
Humidity: 83%
Barometer: 29.95 inHg , 1014.2 hPa
Summary: Mist
Clouds: Mostly cloudy
Visibility: 6 miles , 10 km
Cloud details: Partly cloudy 1000 ft
Mostly cloudy 25000 ft
2020/04/08 15:11 KRND 081511Z 27007KT 6SM BR SCT010 BKN250 25/22 A2995 RMK AO2A SLP135 $
 
KHYI - San Marcos, Texas, USA
Distance from station: NNW 84mi, 135km
Updated: 04/08/2020 10:43am
Haze, Mostly cloudy
Haze, Mostly cloudy
 Wind from S
Wind: S 10 mph , 17 km/h
Temperature: 79°F , 26°C
Dew Point: 73°F , 23°C
Humidity: 84%
Barometer: 29.96 inHg , 1014.6 hPa
Summary: Haze
Clouds: Mostly cloudy
Visibility: 6 miles , 10 km
Cloud details: Mostly cloudy 1000 ft
2020/04/08 15:43 KHYI 081543Z 19009KT 6SM HZ BKN010 26/23 A2996 RMK AO2
KPEZ - Pleasanton Muni, Texas, USA
Distance from station: W 84mi, 135km
Updated: 04/08/2020 10:35am
Clear
Clear
 Wind from SSW
Wind: SSW 5 mph , 7 km/h
Temperature: 77°F , 25°C
Dew Point: 70°F , 21°C
Humidity: 79%
Barometer: 29.96 inHg , 1014.6 hPa
Clouds: Clear
Visibility: 10 miles , 16 km
2020/04/08 15:35 KPEZ 081535Z AUTO 21004KT 10SM CLR 25/21 A2996 RMK AO2 T02450214